createdAt,value
2023-02-16T00:01:00.274Z,101085.15
2023-02-16T00:03:40.682Z,101083.48
2023-02-16T00:06:15.326Z,101078.25
2023-02-16T00:08:49.469Z,101076.09
2023-02-16T00:11:54.524Z,101072.55
2023-02-16T00:14:26.643Z,101074.10
2023-02-16T00:17:00.131Z,101069.45
2023-02-16T00:19:31.771Z,101068.94
2023-02-16T00:22:02.198Z,101069.39
2023-02-16T00:24:32.690Z,101068.37
2023-02-16T00:27:01.718Z,101067.04
2023-02-16T00:29:38.279Z,101063.41
2023-02-16T00:32:14.015Z,101060.01
2023-02-16T00:34:44.204Z,101058.05
2023-02-16T00:37:14.690Z,101057.81
2023-02-16T00:39:45.545Z,101056.38
2023-02-16T00:42:22.698Z,101053.21
2023-02-16T00:44:54.312Z,101055.66
2023-02-16T00:47:29.541Z,101052.13
2023-02-16T00:49:59.637Z,101046.40
2023-02-16T00:52:40.407Z,101044.14
2023-02-16T00:55:18.516Z,101041.50
2023-02-16T00:57:56.541Z,101039.47
2023-02-16T04:00:17.289Z,100839.02
2023-02-16T04:02:46.781Z,100834.05
2023-02-16T04:05:16.154Z,100827.70
2023-02-16T04:07:45.353Z,100824.08
2023-02-16T04:10:14.312Z,100824.84
2023-02-16T04:12:44.218Z,100824.09
2023-02-16T04:15:19.970Z,100817.66
2023-02-16T04:17:49.212Z,100814.90
2023-02-16T04:20:21.361Z,100809.23
2023-02-16T04:22:51.802Z,100807.45
2023-02-16T04:25:22.254Z,100805.39
2023-02-16T04:27:52.555Z,100812.85
2023-02-16T04:30:27.339Z,100811.13
2023-02-16T04:32:57.450Z,100804.09
2023-02-16T04:35:26.943Z,100804.63
2023-02-16T04:37:56.228Z,100804.02
2023-02-16T04:40:25.504Z,100803.84
2023-02-16T04:42:54.555Z,100800.19
2023-02-16T04:45:23.814Z,100796.37
2023-02-16T04:47:53.428Z,100793.71
2023-02-16T04:50:22.621Z,100791.26
2023-02-16T04:52:51.258Z,100790.15
2023-02-16T04:55:20.745Z,100793.62
2023-02-16T04:57:49.219Z,100796.85
2023-02-16T05:00:18.367Z,100800.65
2023-02-16T05:02:46.771Z,100800.47
2023-02-16T05:05:16.228Z,100796.90
2023-02-16T05:07:45.778Z,100800.12
2023-02-16T05:10:14.862Z,100806.95
2023-02-16T05:13:02.789Z,100805.48
2023-02-16T05:15:32.073Z,100810.51
2023-02-16T05:18:01.269Z,100807.18
2023-02-16T05:20:48.804Z,100809.53
2023-02-16T05:23:18.084Z,100807.54
2023-02-16T05:25:47.663Z,100809.69
2023-02-16T05:28:17.161Z,100809.77
2023-02-16T05:30:46.554Z,100807.83
2023-02-16T05:33:15.869Z,100809.20
2023-02-16T05:35:44.379Z,100810.23
2023-02-16T05:38:13.621Z,100808.10
2023-02-16T05:40:42.895Z,100809.49
2023-02-16T05:43:12.351Z,100807.05
2023-02-16T05:45:41.862Z,100806.92
2023-02-16T05:48:10.402Z,100809.40
2023-02-16T05:50:40.040Z,100804.63
2023-02-16T05:53:09.047Z,100796.67
2023-02-16T05:55:37.797Z,100785.74
2023-02-16T05:58:07.188Z,100783.85
2023-02-16T06:00:37.498Z,100775.81
2023-02-16T06:03:06.583Z,100781.48
2023-02-16T06:05:35.748Z,100779.14
2023-02-16T06:08:05.032Z,100775.36
2023-02-16T06:10:34.397Z,100778.92
2023-02-16T06:13:03.950Z,100779.41
2023-02-16T06:15:33.562Z,100775.61
2023-02-16T06:18:03.935Z,100780.48
2023-02-16T06:20:33.125Z,100779.55
2023-02-16T06:23:02.201Z,100780.31
2023-02-16T06:25:31.585Z,100783.57
2023-02-16T06:28:02.028Z,100774.04
2023-02-16T06:30:31.504Z,100769.63
2023-02-16T06:33:00.849Z,100771.67
2023-02-16T06:35:30.398Z,100772.44
2023-02-16T06:38:00.002Z,100767.48
2023-02-16T06:40:29.807Z,100770.54
2023-02-16T06:42:58.984Z,100775.00
2023-02-16T06:45:28.364Z,100772.38
2023-02-16T06:47:56.965Z,100771.50
2023-02-16T06:50:26.302Z,100774.42
2023-02-16T06:52:55.956Z,100774.86
2023-02-16T06:55:25.314Z,100774.86
2023-02-16T06:57:56.990Z,100776.64
2023-02-16T07:00:26.650Z,100775.90
2023-02-16T07:02:56.367Z,100779.37
2023-02-16T07:05:25.896Z,100774.89
2023-02-16T07:07:55.393Z,100771.04
2023-02-16T07:10:24.709Z,100773.70
2023-02-16T07:12:53.330Z,100772.55
2023-02-16T07:15:22.611Z,100771.41
2023-02-16T07:17:52.271Z,100769.20
2023-02-16T07:20:21.772Z,100761.45
2023-02-16T07:22:50.863Z,100762.02
2023-02-16T07:25:20.134Z,100763.23
2023-02-16T07:27:49.850Z,100756.23
2023-02-16T07:30:19.553Z,100756.77
2023-02-16T07:32:49.405Z,100757.69
2023-02-16T07:35:18.861Z,100757.09
2023-02-16T07:37:48.106Z,100757.83
2023-02-16T07:40:16.464Z,100757.94
2023-02-16T07:42:45.950Z,100752.89
2023-02-16T07:45:15.121Z,100749.55
2023-02-16T07:47:43.706Z,100740.37
2023-02-16T07:50:12.088Z,100731.55
2023-02-16T07:52:40.951Z,100730.30
2023-02-16T07:55:11.718Z,100728.11
2023-02-16T07:57:40.363Z,100725.47
2023-02-16T08:00:09.499Z,100729.17
2023-02-16T08:02:41.567Z,100730.36
2023-02-16T08:05:11.460Z,100728.95
2023-02-16T08:07:41.949Z,100734.67
2023-02-16T08:10:13.456Z,100737.13
2023-02-16T08:12:43.215Z,100737.52
2023-02-16T08:15:12.325Z,100736.79
2023-02-16T08:17:41.823Z,100736.30
2023-02-16T08:20:10.937Z,100730.72
2023-02-16T08:22:39.430Z,100727.95
2023-02-16T08:25:08.564Z,100730.14
2023-02-16T08:27:37.552Z,100726.58
2023-02-16T08:30:13.311Z,100724.33
2023-02-16T08:32:43.945Z,100720.52
2023-02-16T08:35:13.214Z,100723.89
2023-02-16T08:37:42.417Z,100721.84
2023-02-16T08:40:11.980Z,100722.40
2023-02-16T08:42:40.937Z,100717.84
2023-02-16T08:45:10.526Z,100714.30
2023-02-16T08:47:39.471Z,100709.13
2023-02-16T08:50:09.301Z,100712.23
2023-02-16T08:52:39.152Z,100711.39
2023-02-16T08:55:08.475Z,100714.25
2023-02-16T08:57:37.731Z,100714.65
2023-02-16T09:00:26.590Z,100711.40
2023-02-16T09:02:59.820Z,100714.15
2023-02-16T09:05:29.268Z,100711.81
2023-02-16T09:07:59.086Z,100711.29
2023-02-16T09:10:28.511Z,100710.56
2023-02-16T09:12:58.570Z,100707.93
2023-02-16T09:15:28.150Z,100707.61
2023-02-16T09:17:57.102Z,100713.15
2023-02-16T09:20:27.977Z,100709.80
2023-02-16T09:22:57.371Z,100710.75
2023-02-16T09:25:26.602Z,100713.80
2023-02-16T09:27:56.287Z,100710.85
2023-02-16T09:30:26.384Z,100710.69
2023-02-16T09:32:55.974Z,100710.77
2023-02-16T09:35:26.184Z,100711.68
2023-02-16T09:37:55.566Z,100712.09
2023-02-16T09:40:25.688Z,100713.50
2023-02-16T09:43:13.964Z,100711.77
2023-02-16T09:45:51.064Z,100708.20
2023-02-16T09:48:36.814Z,100701.10
2023-02-16T09:51:09.319Z,100699.52
2023-02-16T09:53:43.955Z,100703.27
2023-02-16T09:56:39.884Z,100704.28
2023-02-16T09:59:23.722Z,100700.29
2023-02-16T10:02:04.951Z,100702.77
2023-02-16T10:05:02.629Z,100704.52
2023-02-16T10:08:02.922Z,100704.49
2023-02-16T10:10:45.640Z,100705.46
2023-02-16T10:13:23.485Z,100707.95
2023-02-16T10:15:55.770Z,100709.29
2023-02-16T10:18:34.222Z,100711.92
2023-02-16T10:21:08.079Z,100712.50
2023-02-16T10:23:43.309Z,100711.09
2023-02-16T10:26:18.947Z,100706.36
2023-02-16T10:28:57.598Z,100708.08
2023-02-16T10:31:27.120Z,100709.69
2023-02-16T10:34:23.025Z,100710.30
2023-02-16T10:37:17.173Z,100703.31
2023-02-16T10:39:52.812Z,100702.99
2023-02-16T10:42:54.498Z,100700.85
2023-02-16T10:45:31.050Z,100701.32
2023-02-16T10:47:59.903Z,100700.25
2023-02-16T10:50:41.621Z,100699.72
2023-02-16T10:53:35.337Z,100697.35
2023-02-16T10:56:39.779Z,100695.33
2023-02-16T10:59:17.978Z,100687.98
2023-02-16T11:01:51.691Z,100687.88
2023-02-16T11:04:43.644Z,100683.38
2023-02-16T11:07:14.482Z,100681.90
2023-02-16T11:09:45.438Z,100683.65
2023-02-16T11:12:33.321Z,100686.08
2023-02-16T11:15:07.388Z,100681.55
2023-02-16T11:18:05.070Z,100680.56
2023-02-16T11:20:45.359Z,100675.95
2023-02-16T11:23:23.464Z,100679.83
2023-02-16T11:26:00.535Z,100673.62
2023-02-16T11:28:40.330Z,100669.16
2023-02-16T11:31:41.452Z,100669.10
2023-02-16T11:34:25.486Z,100670.44
2023-02-16T11:37:03.838Z,100664.73
2023-02-16T11:39:40.414Z,100666.84
2023-02-16T11:42:20.107Z,100669.61
2023-02-16T11:44:54.874Z,100665.52
2023-02-16T11:47:24.781Z,100663.73
2023-02-16T11:50:20.760Z,100659.84
2023-02-16T11:52:52.561Z,100660.67
2023-02-16T11:55:40.588Z,100659.69
2023-02-16T11:58:24.916Z,100662.01
2023-02-16T12:01:06.334Z,100665.27
2023-02-16T12:04:13.127Z,100664.27
2023-02-16T12:06:56.371Z,100665.42
2023-02-16T12:09:28.580Z,100662.37
2023-02-16T12:12:32.374Z,100657.29
2023-02-16T12:15:13.049Z,100654.52
2023-02-16T12:18:23.915Z,100649.88
2023-02-16T12:21:07.599Z,100643.40
2023-02-16T12:24:05.197Z,100638.92
2023-02-16T12:26:53.545Z,100637.65
2023-02-16T12:29:41.789Z,100639.64
2023-02-16T12:32:16.308Z,100639.58
2023-02-16T12:35:13.374Z,100640.62
2023-02-16T12:38:05.065Z,100640.15
2023-02-16T12:40:52.256Z,100636.27
2023-02-16T12:43:36.979Z,100635.09
2023-02-16T12:46:14.859Z,100634.23
2023-02-16T12:49:10.149Z,100630.06
2023-02-16T12:51:51.850Z,100629.69
2023-02-16T12:54:30.735Z,100627.81
2023-02-16T12:57:08.534Z,100624.50
2023-02-16T13:00:04.131Z,100623.05
2023-02-16T13:02:43.435Z,100613.54
2023-02-16T13:05:21.317Z,100609.61
2023-02-16T13:08:01.164Z,100605.22
2023-02-16T13:11:06.215Z,100604.37
2023-02-16T13:13:37.180Z,100597.10
2023-02-16T13:16:35.164Z,100601.33
2023-02-16T13:19:04.460Z,100599.44
2023-02-16T13:21:52.292Z,100598.55
2023-02-16T13:24:37.213Z,100598.48
2023-02-16T13:27:31.877Z,100594.20
2023-02-16T13:30:24.811Z,100584.94
2023-02-16T13:33:14.713Z,100579.59
2023-02-16T13:36:19.568Z,100579.37
2023-02-16T13:39:07.673Z,100580.79
2023-02-16T13:41:52.633Z,100574.59
2023-02-16T13:44:28.627Z,100576.36
2023-02-16T13:46:58.331Z,100575.88
2023-02-16T13:49:28.515Z,100573.03
2023-02-16T13:52:00.305Z,100570.29
2023-02-16T13:54:40.808Z,100565.45
2023-02-16T13:57:18.859Z,100568.70
2023-02-16T13:59:59.256Z,100566.90
2023-02-16T14:03:14.124Z,100563.10
2023-02-16T14:05:44.900Z,100558.80
2023-02-16T14:08:18.605Z,100556.79
2023-02-16T14:10:53.986Z,100561.70
2023-02-16T14:13:25.645Z,100566.68
2023-02-16T14:15:57.581Z,100561.33
2023-02-16T14:18:44.966Z,100558.22
2023-02-16T14:21:38.372Z,100559.16
2023-02-16T14:24:15.121Z,100564.05
2023-02-16T14:27:15.454Z,100567.52
2023-02-16T14:30:01.860Z,100570.11
2023-02-16T14:32:40.343Z,100572.70
2023-02-16T14:35:17.929Z,100573.90
2023-02-16T14:37:59.202Z,100574.14
2023-02-16T14:40:56.443Z,100577.13
2023-02-16T14:43:32.892Z,100569.33
2023-02-16T14:46:32.285Z,100569.38
2023-02-16T14:49:41.581Z,100568.86
2023-02-16T14:52:30.191Z,100567.59
2023-02-16T14:55:36.560Z,100561.75
2023-02-16T14:58:20.471Z,100563.55
2023-02-16T15:01:13.449Z,100562.11
2023-02-16T15:03:51.776Z,100561.84
2023-02-16T15:06:28.278Z,100556.71
2023-02-16T15:09:00.622Z,100555.33
2023-02-16T15:11:58.997Z,100555.84
2023-02-16T15:14:32.127Z,100557.44
2023-02-16T15:17:00.948Z,100556.17
2023-02-16T15:19:31.753Z,100559.81
2023-02-16T15:22:17.960Z,100561.98
2023-02-16T15:25:02.362Z,100562.47
2023-02-16T15:27:33.512Z,100562.62
2023-02-16T15:30:26.860Z,100562.95
2023-02-16T15:33:00.752Z,100568.54
2023-02-16T15:35:32.756Z,100565.33
2023-02-16T15:38:02.768Z,100560.03
2023-02-16T15:40:33.368Z,100563.89
2023-02-16T15:43:31.172Z,100561.40
2023-02-16T15:46:03.478Z,100562.80
2023-02-16T15:48:34.908Z,100560.02
2023-02-16T15:51:15.920Z,100557.29
2023-02-16T15:54:04.938Z,100560.02
2023-02-16T15:56:33.585Z,100556.98
2023-02-16T15:59:17.893Z,100555.52
2023-02-16T16:01:47.526Z,100557.00
2023-02-16T16:04:21.083Z,100557.77
2023-02-16T16:06:51.680Z,100551.35
2023-02-16T16:09:23.740Z,100548.58
2023-02-16T16:11:55.143Z,100551.59
2023-02-16T16:14:26.052Z,100551.63
2023-02-16T16:16:55.989Z,100551.10
2023-02-16T16:19:37.909Z,100550.31
2023-02-16T16:22:33.325Z,100554.45
2023-02-16T16:25:03.931Z,100552.17
2023-02-16T16:27:36.949Z,100549.79
2023-02-16T16:30:20.112Z,100545.35
2023-02-16T16:33:03.684Z,100547.27
2023-02-16T16:35:40.451Z,100539.21
2023-02-16T16:38:29.758Z,100535.14
2023-02-16T16:41:02.815Z,100536.18
2023-02-16T16:43:35.437Z,100536.70
2023-02-16T16:46:14.197Z,100538.02
2023-02-16T16:48:48.111Z,100537.86
2023-02-16T16:51:40.589Z,100542.41
2023-02-16T16:54:31.764Z,100543.67
2023-02-16T16:57:00.356Z,100541.92
2023-02-16T16:59:29.066Z,100540.29
2023-02-16T17:01:58.075Z,100536.04
2023-02-16T17:04:28.065Z,100533.63
2023-02-16T17:06:56.413Z,100533.48
2023-02-16T17:09:25.898Z,100537.11
2023-02-16T17:11:55.251Z,100538.88
2023-02-16T17:14:27.596Z,100542.76
2023-02-16T17:16:56.700Z,100544.58
2023-02-16T17:19:30.209Z,100549.28
2023-02-16T17:21:59.249Z,100550.13
2023-02-16T17:24:28.571Z,100549.04
2023-02-16T17:26:57.795Z,100548.21
2023-02-16T17:29:27.219Z,100552.05
2023-02-16T17:31:56.564Z,100553.49
2023-02-16T17:34:33.527Z,100549.21
2023-02-16T17:37:08.424Z,100549.96
2023-02-16T17:39:37.649Z,100554.85
2023-02-16T17:42:12.043Z,100550.89
2023-02-16T17:44:41.243Z,100551.23
2023-02-16T17:47:16.848Z,100553.42
2023-02-16T17:49:45.645Z,100556.66
2023-02-16T17:52:14.372Z,100552.45
2023-02-16T17:54:43.432Z,100555.61
2023-02-16T17:57:13.719Z,100556.91
2023-02-16T17:59:43.161Z,100554.27
2023-02-16T18:02:15.258Z,100559.37
2023-02-16T18:04:45.042Z,100554.48
2023-02-16T18:07:15.445Z,100554.87
2023-02-16T18:09:44.866Z,100554.75
2023-02-16T18:12:14.420Z,100551.73
2023-02-16T18:14:43.715Z,100552.65
2023-02-16T18:17:13.484Z,100550.01
2023-02-16T18:19:42.075Z,100548.13
2023-02-16T18:22:13.211Z,100547.55
2023-02-16T18:24:44.676Z,100548.48
2023-02-16T18:27:14.270Z,100554.17
2023-02-16T18:29:44.270Z,100552.88
2023-02-16T18:32:15.567Z,100549.41
2023-02-16T18:34:44.820Z,100549.34
2023-02-16T18:37:13.595Z,100546.17
2023-02-16T18:39:43.944Z,100545.38
2023-02-16T18:42:14.040Z,100550.92
2023-02-16T18:44:43.924Z,100551.74
2023-02-16T18:47:13.625Z,100546.48
2023-02-16T18:49:44.947Z,100543.99
2023-02-16T18:52:13.695Z,100539.35
2023-02-16T18:54:42.320Z,100539.85
2023-02-16T18:57:10.848Z,100537.98
2023-02-16T18:59:39.217Z,100539.16
2023-02-16T19:02:08.360Z,100537.55
2023-02-16T19:04:37.589Z,100543.23
2023-02-16T19:07:06.411Z,100542.13
2023-02-16T19:09:34.840Z,100539.50
2023-02-16T19:12:03.261Z,100539.20
2023-02-16T19:14:31.630Z,100537.71
2023-02-16T19:16:59.955Z,100539.31
2023-02-16T19:19:30.771Z,100536.38
2023-02-16T19:22:00.392Z,100535.52
2023-02-16T19:24:28.812Z,100531.55
2023-02-16T19:26:58.539Z,100533.54
2023-02-16T19:29:27.229Z,100528.30
2023-02-16T19:31:56.168Z,100531.64
2023-02-16T19:34:24.776Z,100530.64
2023-02-16T19:36:53.272Z,100528.30
2023-02-16T19:39:21.631Z,100525.36
2023-02-16T19:41:49.914Z,100521.66
2023-02-16T19:44:18.675Z,100521.07
2023-02-16T19:46:47.086Z,100524.63
2023-02-16T19:49:17.479Z,100522.86
2023-02-16T19:51:47.972Z,100524.48
2023-02-16T19:54:19.524Z,100522.04
2023-02-16T19:56:48.846Z,100519.05
2023-02-16T19:59:17.470Z,100521.89
2023-02-16T20:01:46.064Z,100515.06
2023-02-16T20:04:14.542Z,100515.05
2023-02-16T20:06:44.719Z,100510.83
2023-02-16T20:09:13.882Z,100509.66
2023-02-16T20:11:42.670Z,100508.30
2023-02-16T20:14:12.479Z,100507.66
2023-02-16T20:16:41.792Z,100503.60
2023-02-16T20:19:10.918Z,100503.55
2023-02-16T20:21:41.226Z,100503.45
2023-02-16T20:24:10.974Z,100498.41
2023-02-16T20:26:45.975Z,100502.27
2023-02-16T20:29:18.049Z,100498.77
2023-02-16T20:31:55.776Z,100506.59
2023-02-16T20:34:26.751Z,100502.73
2023-02-16T20:36:55.569Z,100502.49
2023-02-16T20:39:24.644Z,100500.02
2023-02-16T20:41:53.273Z,100502.84
2023-02-16T20:44:22.818Z,100501.27
2023-02-16T20:46:51.577Z,100503.37
2023-02-16T20:49:20.128Z,100500.73
2023-02-16T20:51:48.657Z,100505.79
2023-02-16T20:54:17.159Z,100513.19
2023-02-16T20:56:45.581Z,100506.95
2023-02-16T20:59:13.905Z,100503.70
2023-02-16T21:01:46.729Z,100502.57
2023-02-16T21:04:17.987Z,100500.19
2023-02-16T21:06:46.588Z,100504.08
2023-02-16T21:09:15.808Z,100506.90
2023-02-16T21:11:44.476Z,100510.54
2023-02-16T21:14:13.491Z,100513.46
2023-02-16T21:16:43.141Z,100507.39
2023-02-16T21:19:22.641Z,100510.89
2023-02-16T21:21:53.813Z,100505.63
2023-02-16T21:24:23.212Z,100511.55
2023-02-16T21:26:52.172Z,100506.56
2023-02-16T21:29:21.068Z,100513.02
2023-02-16T21:31:49.737Z,100508.71
2023-02-16T21:34:19.239Z,100509.30
2023-02-16T21:36:48.319Z,100505.80
2023-02-16T21:39:18.257Z,100504.25
2023-02-16T21:41:49.474Z,100503.02
2023-02-16T21:44:19.145Z,100508.65
2023-02-16T21:46:48.784Z,100508.31
2023-02-16T21:49:20.708Z,100511.07
2023-02-16T21:51:50.050Z,100514.38
2023-02-16T21:54:42.640Z,100513.34
2023-02-16T21:57:11.588Z,100515.09
2023-02-16T21:59:39.817Z,100513.90
2023-02-16T22:02:11.559Z,100513.04
2023-02-16T22:04:41.473Z,100509.52
2023-02-16T22:07:09.935Z,100514.00
2023-02-16T22:09:38.205Z,100513.13
2023-02-16T22:12:07.881Z,100512.61
2023-02-16T22:14:36.773Z,100508.17
2023-02-16T22:17:06.707Z,100509.82
2023-02-16T22:19:34.969Z,100509.33
2023-02-16T22:22:03.538Z,100503.35
2023-02-16T22:24:33.298Z,100502.23
2023-02-16T22:27:02.100Z,100500.94
2023-02-16T22:29:31.087Z,100498.34
2023-02-16T22:31:59.795Z,100502.69
2023-02-16T22:34:28.337Z,100501.30
2023-02-16T22:36:57.765Z,100496.67
2023-02-16T22:39:26.594Z,100497.36
2023-02-16T22:41:55.546Z,100490.60
2023-02-16T22:44:25.274Z,100484.23
2023-02-16T22:46:55.127Z,100486.26
2023-02-16T22:49:24.682Z,100486.73
2023-02-16T22:51:53.662Z,100489.33
2023-02-16T22:54:23.446Z,100490.17
2023-02-16T22:56:53.713Z,100485.25
2023-02-16T22:59:22.978Z,100481.09
2023-02-16T23:01:51.511Z,100477.09
2023-02-16T23:04:21.079Z,100474.65
2023-02-16T23:06:50.682Z,100473.58
2023-02-16T23:09:21.975Z,100473.43
2023-02-16T23:11:52.182Z,100471.24
2023-02-16T23:14:21.523Z,100471.06
2023-02-16T23:16:54.962Z,100465.64
2023-02-16T23:19:26.380Z,100464.98
2023-02-16T23:21:56.004Z,100462.16
2023-02-16T23:24:25.464Z,100462.55
2023-02-16T23:26:55.377Z,100466.98
2023-02-16T23:29:25.748Z,100460.52
2023-02-16T23:31:55.002Z,100463.25
2023-02-16T23:34:24.555Z,100459.31
2023-02-16T23:36:53.764Z,100458.27
2023-02-16T23:39:23.422Z,100458.27
2023-02-16T23:41:52.757Z,100454.16
2023-02-16T23:44:22.012Z,100453.70
2023-02-16T23:46:50.843Z,100456.55
2023-02-16T23:49:19.537Z,100450.02
2023-02-16T23:51:48.755Z,100455.09
2023-02-16T23:54:18.103Z,100455.34
2023-02-16T23:56:47.361Z,100457.07
2023-02-16T23:59:16.604Z,100457.98
